createdAt,value
2017-12-30T00:00:55.700Z,99311.22
2017-12-30T00:01:58.172Z,99316.52
2017-12-30T00:03:00.665Z,99320.80
2017-12-30T00:04:03.118Z,99315.39
2017-12-30T00:05:05.596Z,99318.61
2017-12-30T00:06:08.052Z,99315.58
2017-12-30T00:07:10.502Z,99319.55
2017-12-30T00:08:12.950Z,99323.84
2017-12-30T00:09:15.420Z,99320.41
2017-12-30T00:10:17.886Z,99326.20
2017-12-30T00:11:20.352Z,99321.78
2017-12-30T00:12:22.816Z,99323.53
2017-12-30T00:13:25.276Z,99320.09
2017-12-30T00:14:27.730Z,99328.22
2017-12-30T00:15:30.194Z,99326.63
2017-12-30T00:16:32.642Z,99332.16
2017-12-30T00:17:35.101Z,99335.72
2017-12-30T00:18:37.572Z,99339.31
2017-12-30T00:19:40.017Z,99348.81
2017-12-30T00:20:42.495Z,99342.19
2017-12-30T00:21:44.942Z,99350.78
2017-12-30T00:22:47.401Z,99348.91
2017-12-30T00:23:49.864Z,99346.37
2017-12-30T00:24:52.314Z,99347.73
2017-12-30T00:25:54.801Z,99350.44
2017-12-30T00:26:57.266Z,99355.50
2017-12-30T00:27:59.718Z,99351.56
2017-12-30T00:29:02.180Z,99348.24
2017-12-30T00:30:04.633Z,99354.14
2017-12-30T00:31:07.186Z,99349.36
2017-12-30T00:32:09.665Z,99349.14
2017-12-30T00:33:12.124Z,99351.86
2017-12-30T00:34:14.600Z,99352.31
2017-12-30T00:35:17.046Z,99348.70
2017-12-30T00:36:19.527Z,99356.98
2017-12-30T00:37:21.998Z,99356.59
2017-12-30T00:38:24.441Z,99349.06
2017-12-30T00:39:26.903Z,99349.12
2017-12-30T00:40:29.364Z,99356.33
2017-12-30T00:41:31.849Z,99353.51
2017-12-30T00:42:34.293Z,99348.95
2017-12-30T00:43:36.760Z,99356.08
2017-12-30T00:44:39.220Z,99358.17
2017-12-30T00:45:41.700Z,99349.81
2017-12-30T00:46:44.212Z,99348.72
2017-12-30T00:47:46.677Z,99350.41
2017-12-30T00:48:49.129Z,99354.73
2017-12-30T00:49:51.578Z,99358.59
2017-12-30T00:50:54.025Z,99354.67
2017-12-30T00:51:56.507Z,99357.80
2017-12-30T00:52:58.953Z,99352.23
2017-12-30T00:54:01.414Z,99352.55
2017-12-30T00:55:03.865Z,99351.64
2017-12-30T00:56:06.328Z,99355.00
2017-12-30T00:57:08.810Z,99355.38
2017-12-30T00:58:11.254Z,99356.07
2017-12-30T00:59:13.716Z,99353.45
2017-12-30T01:00:16.181Z,99344.22
2017-12-30T01:02:20.427Z,99344.57
2017-12-30T01:03:22.892Z,99347.36
2017-12-30T01:04:25.351Z,99348.86
2017-12-30T01:05:27.798Z,99349.78
2017-12-30T01:06:30.264Z,99354.69
2017-12-30T01:07:32.753Z,99349.11
2017-12-30T01:08:35.197Z,99361.80
2017-12-30T01:09:37.650Z,99360.20
2017-12-30T01:10:40.120Z,99372.16
2017-12-30T01:11:42.587Z,99365.25
2017-12-30T01:12:45.076Z,99374.49
2017-12-30T01:13:47.541Z,99372.14
2017-12-30T01:14:49.989Z,99375.74
2017-12-30T01:15:52.451Z,99369.98
2017-12-30T01:16:54.916Z,99371.36
2017-12-30T01:17:57.400Z,99378.74
2017-12-30T01:18:59.860Z,99379.44
2017-12-30T01:20:02.313Z,99379.84
2017-12-30T01:21:04.776Z,99376.57
2017-12-30T01:22:07.221Z,99372.80
2017-12-30T01:23:09.703Z,99376.78
2017-12-30T01:24:12.168Z,99373.17
2017-12-30T01:25:14.621Z,99376.63
2017-12-30T01:26:17.068Z,99380.23
2017-12-30T01:27:19.531Z,99378.20
2017-12-30T01:28:21.997Z,99377.86
2017-12-30T01:29:24.449Z,99383.58
2017-12-30T01:30:26.939Z,99380.38
2017-12-30T01:31:29.396Z,99379.35
2017-12-30T01:32:31.841Z,99373.09
2017-12-30T01:33:34.320Z,99371.91
2017-12-30T01:34:36.777Z,99371.80
2017-12-30T01:35:39.226Z,99370.97
2017-12-30T01:36:41.683Z,99375.48
2017-12-30T01:37:44.148Z,99378.65
2017-12-30T01:38:46.633Z,99373.64
2017-12-30T01:39:49.116Z,99374.30
2017-12-30T01:40:51.578Z,99370.09
2017-12-30T01:41:54.025Z,99355.35
2017-12-30T01:42:56.492Z,99356.55
2017-12-30T01:43:58.946Z,99350.29
2017-12-30T01:45:01.399Z,99353.23
2017-12-30T01:46:03.854Z,99349.18
2017-12-30T01:47:06.316Z,99341.45
2017-12-30T01:48:08.788Z,99340.09
2017-12-30T01:49:11.237Z,99338.66
2017-12-30T01:50:13.681Z,99341.80
2017-12-30T01:51:16.152Z,99343.06
2017-12-30T01:52:18.601Z,99335.14
2017-12-30T01:53:21.076Z,99336.52
2017-12-30T01:54:23.526Z,99327.42
2017-12-30T01:55:25.991Z,99329.13
2017-12-30T01:56:28.480Z,99321.67
2017-12-30T01:57:30.943Z,99324.61
2017-12-30T01:58:33.434Z,99322.58
2017-12-30T01:59:35.886Z,99334.22
2017-12-30T02:00:38.361Z,99334.73
2017-12-30T02:01:40.827Z,99332.70
2017-12-30T02:02:43.274Z,99330.27
2017-12-30T02:03:45.732Z,99328.10
2017-12-30T02:04:48.201Z,99327.61
2017-12-30T02:05:50.646Z,99327.62
2017-12-30T02:06:53.093Z,99326.25
2017-12-30T02:07:55.561Z,99330.98
2017-12-30T02:08:58.006Z,99326.36
2017-12-30T02:10:00.487Z,99327.36
2017-12-30T02:11:02.947Z,99328.53
2017-12-30T02:12:05.398Z,99325.73
2017-12-30T02:13:07.867Z,99328.97
2017-12-30T02:14:10.325Z,99325.50
2017-12-30T02:15:12.788Z,99318.21
2017-12-30T02:16:15.240Z,99324.67
2017-12-30T02:17:17.703Z,99319.95
2017-12-30T02:18:20.162Z,99317.14
2017-12-30T02:19:22.626Z,99318.34
2017-12-30T02:20:25.080Z,99316.97
2017-12-30T02:21:27.550Z,99315.96
2017-12-30T02:22:29.994Z,99309.42
2017-12-30T02:23:32.455Z,99316.55
2017-12-30T02:24:34.897Z,99306.12
2017-12-30T02:25:37.353Z,99295.34
2017-12-30T02:26:39.820Z,99297.27
2017-12-30T02:27:42.270Z,99295.73
2017-12-30T02:28:44.745Z,99291.19
2017-12-30T02:29:47.203Z,99289.45
2017-12-30T02:30:49.665Z,99288.02
2017-12-30T02:31:52.192Z,99278.35
2017-12-30T02:32:54.641Z,99278.81
2017-12-30T02:33:57.089Z,99290.13
2017-12-30T02:34:59.545Z,99281.23
2017-12-30T02:36:02.013Z,99281.78
2017-12-30T02:37:04.463Z,99264.53
2017-12-30T02:38:06.919Z,99260.16
2017-12-30T02:39:09.384Z,99262.20
2017-12-30T02:40:11.848Z,99256.17
2017-12-30T02:41:14.312Z,99253.20
2017-12-30T02:42:16.777Z,99251.36
2017-12-30T02:43:19.236Z,99250.81
2017-12-30T02:44:21.684Z,99249.95
2017-12-30T02:45:24.255Z,99244.75
2017-12-30T02:46:26.699Z,99241.67
2017-12-30T02:47:29.155Z,99253.66
2017-12-30T02:48:31.619Z,99245.75
2017-12-30T02:49:34.100Z,99247.29
2017-12-30T02:50:36.641Z,99249.35
2017-12-30T02:51:39.132Z,99258.62
2017-12-30T02:52:41.584Z,99267.17
2017-12-30T02:53:44.026Z,99262.94
2017-12-30T02:54:46.571Z,99261.92
2017-12-30T02:55:49.041Z,99266.70
2017-12-30T02:56:51.493Z,99258.62
2017-12-30T02:57:53.942Z,99256.80
2017-12-30T02:58:56.390Z,99258.06
2017-12-30T02:59:58.837Z,99261.16
2017-12-30T03:01:01.299Z,99260.84
2017-12-30T03:02:03.759Z,99260.16
2017-12-30T03:03:06.205Z,99257.61
2017-12-30T03:04:08.661Z,99250.42
2017-12-30T03:05:11.124Z,99251.71
2017-12-30T03:06:13.621Z,99248.38
2017-12-30T03:07:16.088Z,99247.12
2017-12-30T03:08:18.563Z,99243.62
2017-12-30T03:09:21.010Z,99251.84
2017-12-30T03:10:23.462Z,99243.34
2017-12-30T03:11:25.914Z,99242.62
2017-12-30T03:12:28.454Z,99241.45
2017-12-30T03:13:30.920Z,99242.99
2017-12-30T03:14:33.383Z,99240.49
2017-12-30T03:15:35.844Z,99230.23
2017-12-30T03:16:38.306Z,99228.18
2017-12-30T03:17:40.773Z,99220.14
2017-12-30T03:18:43.235Z,99222.08
2017-12-30T03:19:45.681Z,99217.53
2017-12-30T03:20:48.152Z,99212.42
2017-12-30T03:21:50.601Z,99213.99
2017-12-30T03:22:53.061Z,99200.00
2017-12-30T03:23:55.525Z,99208.72
2017-12-30T03:24:57.992Z,99208.14
2017-12-30T03:26:00.437Z,99203.53
2017-12-30T03:27:02.902Z,99216.16
2017-12-30T03:28:05.364Z,99210.38
2017-12-30T03:29:07.831Z,99208.48
2017-12-30T03:30:10.300Z,99208.13
2017-12-30T03:31:12.796Z,99201.16
2017-12-30T03:32:15.246Z,99207.30
2017-12-30T03:33:17.704Z,99203.41
2017-12-30T03:34:20.157Z,99205.84
2017-12-30T03:35:22.605Z,99211.20
2017-12-30T03:36:25.068Z,99207.27
2017-12-30T03:37:27.536Z,99213.81
2017-12-30T03:38:29.989Z,99207.95
2017-12-30T03:39:32.448Z,99219.70
2017-12-30T03:40:34.917Z,99207.39
2017-12-30T03:41:37.374Z,99209.59
2017-12-30T03:42:39.817Z,99203.11
2017-12-30T03:43:42.269Z,99201.77
2017-12-30T03:44:44.743Z,99203.85
2017-12-30T03:45:47.193Z,99199.11
2017-12-30T03:46:49.673Z,99195.71
2017-12-30T03:47:52.138Z,99191.28
2017-12-30T03:48:54.598Z,99189.08
2017-12-30T03:49:57.057Z,99182.66
2017-12-30T03:50:59.520Z,99193.70
2017-12-30T03:52:01.979Z,99189.53
2017-12-30T03:53:04.429Z,99188.99
2017-12-30T03:54:06.900Z,99197.08
2017-12-30T03:55:09.364Z,99204.16
2017-12-30T03:56:11.842Z,99202.67
2017-12-30T03:57:14.285Z,99201.99
2017-12-30T03:58:16.725Z,99206.80
2017-12-30T03:59:19.170Z,99194.72
2017-12-30T04:00:21.617Z,99190.04
2017-12-30T04:01:24.073Z,99183.78
2017-12-30T04:02:26.514Z,99181.95
2017-12-30T04:03:29.024Z,99183.19
2017-12-30T04:04:31.467Z,99187.77
2017-12-30T04:05:33.909Z,99194.66
2017-12-30T04:06:36.371Z,99197.86
2017-12-30T04:07:38.831Z,99191.32
2017-12-30T04:08:41.296Z,99190.98
2017-12-30T04:09:43.762Z,99187.36
2017-12-30T04:10:46.223Z,99186.04
2017-12-30T04:11:48.683Z,99189.24
2017-12-30T04:12:51.148Z,99190.98
2017-12-30T04:13:53.594Z,99179.50
2017-12-30T04:14:56.064Z,99189.58
2017-12-30T04:15:58.509Z,99179.88
2017-12-30T04:17:00.962Z,99182.77
2017-12-30T04:18:03.424Z,99189.22
2017-12-30T04:19:05.874Z,99183.78
2017-12-30T04:20:08.348Z,99182.36
2017-12-30T04:21:10.789Z,99189.24
2017-12-30T04:22:13.238Z,99183.02
2017-12-30T04:23:15.776Z,99171.96
2017-12-30T04:24:18.229Z,99174.08
2017-12-30T04:25:20.673Z,99174.73
2017-12-30T04:26:23.135Z,99166.30
2017-12-30T04:27:25.612Z,99173.13
2017-12-30T04:28:28.063Z,99177.41
2017-12-30T04:29:30.523Z,99180.21
2017-12-30T04:30:32.982Z,99172.50
2017-12-30T04:31:35.433Z,99174.59
2017-12-30T04:32:37.891Z,99176.02
2017-12-30T04:33:40.334Z,99175.02
2017-12-30T04:34:42.802Z,99178.19
2017-12-30T04:35:45.263Z,99179.42
2017-12-30T04:36:47.724Z,99178.70
2017-12-30T04:37:50.189Z,99174.41
2017-12-30T04:38:52.656Z,99175.35
2017-12-30T04:39:55.115Z,99172.13
2017-12-30T04:40:57.576Z,99170.64
2017-12-30T04:42:00.025Z,99166.44
2017-12-30T04:43:02.481Z,99165.53
2017-12-30T04:44:04.948Z,99169.38
2017-12-30T04:45:07.399Z,99162.16
2017-12-30T04:46:09.875Z,99172.50
2017-12-30T04:47:12.336Z,99162.00
2017-12-30T04:48:14.786Z,99170.31
2017-12-30T04:49:17.234Z,99167.60
2017-12-30T04:50:19.687Z,99167.37
2017-12-30T04:51:22.130Z,99168.70
2017-12-30T04:52:24.578Z,99173.14
2017-12-30T04:53:27.094Z,99171.38
2017-12-30T04:54:29.571Z,99172.38
2017-12-30T04:55:32.521Z,99168.36
2017-12-30T04:56:34.992Z,99161.38
2017-12-30T04:57:37.447Z,99149.75
2017-12-30T04:58:39.904Z,99152.52
2017-12-30T04:59:42.368Z,99145.13
2017-12-30T05:00:44.835Z,99149.77
2017-12-30T05:01:47.278Z,99150.44
2017-12-30T05:02:49.748Z,99152.92
2017-12-30T05:03:52.193Z,99155.47
2017-12-30T05:04:54.641Z,99147.01
2017-12-30T05:05:57.103Z,99146.80
2017-12-30T05:06:59.564Z,99150.15
2017-12-30T05:08:02.018Z,99138.45
2017-12-30T05:09:04.478Z,99147.26
2017-12-30T05:10:06.925Z,99137.93
2017-12-30T05:11:09.385Z,99143.95
2017-12-30T05:12:11.848Z,99134.16
2017-12-30T05:13:14.309Z,99132.61
2017-12-30T05:14:16.767Z,99131.43
2017-12-30T05:15:19.227Z,99138.49
2017-12-30T05:16:21.684Z,99135.45
2017-12-30T05:17:24.148Z,99141.73
2017-12-30T05:18:26.612Z,99146.39
2017-12-30T05:19:29.084Z,99146.71
2017-12-30T05:20:31.553Z,99139.48
2017-12-30T05:21:34.160Z,99139.41
2017-12-30T05:22:36.605Z,99141.66
2017-12-30T05:23:39.072Z,99142.75
2017-12-30T05:24:41.532Z,99137.80
2017-12-30T05:25:43.982Z,99132.20
2017-12-30T05:26:46.430Z,99136.48
2017-12-30T05:27:48.887Z,99133.02
2017-12-30T05:28:51.348Z,99133.89
2017-12-30T05:29:53.802Z,99130.20
2017-12-30T05:30:56.264Z,99126.27
2017-12-30T05:31:58.728Z,99120.95
2017-12-30T05:33:01.177Z,99117.68
2017-12-30T05:34:03.631Z,99120.89
2017-12-30T05:35:06.090Z,99131.35
2017-12-30T05:36:08.552Z,99122.73
2017-12-30T05:37:11.002Z,99123.27
2017-12-30T05:38:13.472Z,99131.62
2017-12-30T05:39:15.933Z,99132.80
2017-12-30T05:40:18.383Z,99137.75
2017-12-30T05:41:20.835Z,99147.13
2017-12-30T05:42:23.294Z,99151.80
2017-12-30T05:43:25.756Z,99152.37
2017-12-30T05:44:28.220Z,99156.84
2017-12-30T05:45:30.679Z,99156.59
2017-12-30T05:46:33.140Z,99158.18
2017-12-30T05:47:35.613Z,99152.05
2017-12-30T05:48:38.062Z,99150.70
2017-12-30T05:49:40.509Z,99145.25
2017-12-30T05:50:42.958Z,99137.63
2017-12-30T05:51:45.416Z,99132.53
2017-12-30T05:52:47.879Z,99135.39
2017-12-30T05:53:50.348Z,99128.33
2017-12-30T05:54:52.797Z,99121.21
2017-12-30T05:55:55.548Z,99126.00
2017-12-30T05:56:58.015Z,99124.98
2017-12-30T05:58:00.951Z,99123.01
2017-12-30T05:59:03.398Z,99119.39
2017-12-30T06:00:05.888Z,99120.84
2017-12-30T06:01:08.352Z,99123.25
2017-12-30T06:02:10.832Z,99121.59
2017-12-30T06:03:13.296Z,99122.25
2017-12-30T06:04:15.738Z,99118.66
2017-12-30T06:05:18.184Z,99114.89
2017-12-30T06:06:20.649Z,99105.50
2017-12-30T06:07:23.112Z,99111.44
2017-12-30T06:08:25.575Z,99109.03
2017-12-30T06:09:28.048Z,99109.41
2017-12-30T06:10:30.505Z,99112.19
2017-12-30T06:11:32.968Z,99102.91
2017-12-30T06:12:35.432Z,99108.95
2017-12-30T06:13:37.900Z,99104.55
2017-12-30T06:14:40.360Z,99098.61
2017-12-30T06:15:42.805Z,99082.02
2017-12-30T06:16:45.259Z,99084.38
2017-12-30T06:17:47.724Z,99077.49
2017-12-30T06:18:50.191Z,99079.72
2017-12-30T06:19:52.646Z,99080.49
2017-12-30T06:20:55.100Z,99086.77
2017-12-30T06:21:57.564Z,99074.69
2017-12-30T06:23:00.028Z,99065.94
2017-12-30T06:24:02.492Z,99063.13
2017-12-30T06:25:04.955Z,99054.92
2017-12-30T06:26:07.397Z,99050.05
2017-12-30T06:27:09.849Z,99044.31
2017-12-30T06:28:12.293Z,99040.87
2017-12-30T06:29:14.756Z,99034.81
2017-12-30T06:30:17.213Z,99031.46
2017-12-30T06:31:19.672Z,99020.47
2017-12-30T06:32:22.132Z,99026.94
2017-12-30T06:33:24.596Z,99021.48
2017-12-30T06:34:27.056Z,99013.62
2017-12-30T06:35:29.501Z,99010.48
2017-12-30T06:36:31.966Z,98998.22
2017-12-30T06:37:34.406Z,98998.80
2017-12-30T06:38:36.849Z,98991.93
2017-12-30T06:39:39.481Z,98984.95
2017-12-30T06:40:41.948Z,98972.34
2017-12-30T06:41:44.412Z,98969.33
2017-12-30T06:42:46.927Z,98961.30
2017-12-30T06:43:49.388Z,98961.72
2017-12-30T06:44:51.833Z,98962.77
2017-12-30T06:45:54.329Z,98976.12
2017-12-30T06:46:56.792Z,98969.20
2017-12-30T06:47:59.253Z,98966.28
2017-12-30T06:49:01.710Z,98958.23
2017-12-30T06:50:04.154Z,98965.24
2017-12-30T06:51:06.593Z,98946.40
2017-12-30T06:52:09.052Z,98953.49
2017-12-30T06:53:11.502Z,98944.63
2017-12-30T06:54:13.963Z,98961.41
2017-12-30T06:55:16.408Z,98947.13
2017-12-30T06:56:18.868Z,98931.96
2017-12-30T06:57:21.329Z,98914.27
2017-12-30T06:58:24.354Z,98916.25
2017-12-30T06:59:26.797Z,98910.91
2017-12-30T07:00:29.238Z,98910.84
2017-12-30T07:01:31.710Z,98910.64
2017-12-30T07:02:34.168Z,98910.01
2017-12-30T07:03:36.627Z,98902.45
2017-12-30T07:04:39.069Z,98909.53
2017-12-30T07:05:41.513Z,98908.33
2017-12-30T07:06:43.964Z,98915.95
2017-12-30T07:07:46.410Z,98908.41
2017-12-30T07:08:48.853Z,98906.88
2017-12-30T07:09:51.312Z,98909.75
2017-12-30T07:10:53.788Z,98907.23
2017-12-30T07:11:56.259Z,98907.83
2017-12-30T07:12:58.762Z,98901.88
2017-12-30T07:14:01.187Z,98895.73
2017-12-30T07:15:03.630Z,98896.66
2017-12-30T07:16:06.108Z,98894.14
2017-12-30T07:17:08.572Z,98898.83
2017-12-30T07:18:11.043Z,98881.97
2017-12-30T07:19:13.490Z,98881.13
2017-12-30T07:20:15.937Z,98878.97
2017-12-30T07:21:18.404Z,98884.05
2017-12-30T07:22:20.862Z,98857.98
2017-12-30T07:23:23.331Z,98881.75
2017-12-30T07:24:25.787Z,98879.30
2017-12-30T07:25:28.243Z,98880.16
2017-12-30T07:26:30.708Z,98875.13
2017-12-30T07:27:33.249Z,98875.55
2017-12-30T07:28:35.743Z,98873.94
2017-12-30T07:29:38.200Z,98881.56
2017-12-30T07:30:40.726Z,98875.83
2017-12-30T07:31:43.197Z,98866.22
2017-12-30T07:32:45.646Z,98859.11
2017-12-30T07:33:48.144Z,98863.84
2017-12-30T07:34:50.554Z,98848.19
2017-12-30T07:35:53.008Z,98850.28
2017-12-30T07:36:55.457Z,98839.38
2017-12-30T07:37:57.920Z,98844.36
2017-12-30T07:39:00.385Z,98848.19
2017-12-30T07:40:02.837Z,98842.66
2017-12-30T07:41:05.301Z,98838.53
2017-12-30T07:42:07.746Z,98839.25
2017-12-30T07:43:10.198Z,98831.76
2017-12-30T07:44:12.637Z,98836.73
2017-12-30T07:45:15.104Z,98830.16
2017-12-30T07:46:17.565Z,98824.70
2017-12-30T07:47:20.032Z,98813.78
2017-12-30T07:48:22.477Z,98817.50
2017-12-30T07:49:24.917Z,98825.11
2017-12-30T07:50:27.366Z,98811.81
2017-12-30T07:51:29.825Z,98814.69
2017-12-30T07:52:32.270Z,98810.92
2017-12-30T07:53:34.713Z,98808.77
2017-12-30T07:54:37.176Z,98812.59
2017-12-30T07:55:39.635Z,98814.76
2017-12-30T07:56:42.078Z,98800.48
2017-12-30T07:57:44.548Z,98793.93
2017-12-30T07:58:47.008Z,98783.01
2017-12-30T07:59:49.542Z,98783.36
2017-12-30T08:00:51.990Z,98777.85
2017-12-30T08:01:54.437Z,98783.72
2017-12-30T08:02:56.898Z,98778.56
2017-12-30T08:03:59.370Z,98779.23
2017-12-30T08:05:01.829Z,98769.52
2017-12-30T08:06:04.277Z,98772.11
2017-12-30T08:07:06.753Z,98764.58
2017-12-30T08:08:09.215Z,98763.08
2017-12-30T08:09:11.676Z,98757.45
2017-12-30T08:10:14.130Z,98751.34
2017-12-30T08:11:16.681Z,98746.72
2017-12-30T08:12:19.130Z,98740.28
2017-12-30T08:13:21.582Z,98735.91
2017-12-30T08:14:24.050Z,98739.09
2017-12-30T08:15:26.503Z,98736.04
2017-12-30T08:16:28.946Z,98738.20
2017-12-30T08:17:31.396Z,98747.91
2017-12-30T08:18:33.863Z,98731.00
2017-12-30T08:19:36.316Z,98730.36
2017-12-30T08:20:38.775Z,98730.34
2017-12-30T08:21:41.222Z,98727.82
2017-12-30T08:22:43.714Z,98730.02
2017-12-30T08:23:46.179Z,98730.09
2017-12-30T08:24:48.621Z,98729.22
2017-12-30T08:25:51.116Z,98718.73
2017-12-30T08:26:53.585Z,98721.75
2017-12-30T08:27:56.056Z,98712.59
2017-12-30T08:28:58.498Z,98713.86
2017-12-30T08:30:00.959Z,98719.50
2017-12-30T08:31:03.470Z,98719.13
2017-12-30T08:32:05.895Z,98716.67
2017-12-30T08:33:08.337Z,98718.73
2017-12-30T08:34:10.782Z,98706.14
2017-12-30T08:35:13.226Z,98705.00
2017-12-30T08:36:15.684Z,98706.67
2017-12-30T08:37:18.129Z,98713.89
2017-12-30T08:38:20.592Z,98701.72
2017-12-30T08:39:23.050Z,98697.28
2017-12-30T08:40:25.662Z,98709.38
2017-12-30T08:41:28.164Z,98693.43
2017-12-30T08:42:30.630Z,98694.07
2017-12-30T08:43:33.070Z,98692.98
2017-12-30T08:44:35.509Z,98698.94
2017-12-30T08:45:37.985Z,98687.06
2017-12-30T08:46:40.525Z,98688.96
2017-12-30T08:47:42.970Z,98670.04
2017-12-30T08:48:45.439Z,98669.98
2017-12-30T08:49:47.903Z,98652.13
2017-12-30T08:50:50.349Z,98657.59
2017-12-30T08:51:52.808Z,98668.80
2017-12-30T08:52:55.277Z,98657.02
2017-12-30T08:53:57.726Z,98667.16
2017-12-30T08:55:00.166Z,98653.68
2017-12-30T08:56:02.613Z,98647.07
2017-12-30T08:57:05.075Z,98649.02
2017-12-30T08:58:07.518Z,98648.77
2017-12-30T08:59:09.978Z,98652.73
2017-12-30T09:00:12.430Z,98641.09
2017-12-30T09:01:14.897Z,98639.78
2017-12-30T09:02:17.364Z,98649.14
2017-12-30T09:03:19.818Z,98642.34
2017-12-30T09:04:22.330Z,98636.12
2017-12-30T09:05:24.792Z,98633.97
2017-12-30T09:06:27.238Z,98630.61
2017-12-30T09:07:29.681Z,98637.63
2017-12-30T09:08:32.125Z,98634.98
2017-12-30T09:09:34.574Z,98642.30
2017-12-30T09:10:37.036Z,98651.23
2017-12-30T09:11:39.489Z,98652.45
2017-12-30T09:12:41.951Z,98650.83
2017-12-30T09:13:44.520Z,98654.48
2017-12-30T09:14:46.984Z,98659.06
2017-12-30T09:15:49.448Z,98649.75
2017-12-30T09:16:51.890Z,98651.56
2017-12-30T09:17:54.352Z,98651.31
2017-12-30T09:18:57.041Z,98650.41
2017-12-30T09:19:59.541Z,98643.08
2017-12-30T09:21:01.957Z,98646.70
2017-12-30T09:22:04.418Z,98644.65
2017-12-30T09:23:06.863Z,98656.79
2017-12-30T09:24:09.306Z,98653.97
2017-12-30T09:25:11.790Z,98655.94
2017-12-30T09:26:14.256Z,98653.97
2017-12-30T09:27:16.716Z,98662.92
2017-12-30T09:28:19.267Z,98662.62
2017-12-30T09:29:21.709Z,98659.27
2017-12-30T09:30:24.149Z,98661.77
2017-12-30T09:31:26.589Z,98654.08
2017-12-30T09:32:29.068Z,98651.50
2017-12-30T09:33:31.532Z,98658.82
2017-12-30T09:34:34.010Z,98643.00
2017-12-30T09:35:36.572Z,98655.61
2017-12-30T09:36:39.036Z,98658.95
2017-12-30T09:37:41.512Z,98657.81
2017-12-30T09:38:43.953Z,98666.63
2017-12-30T09:39:46.416Z,98655.84
2017-12-30T09:40:48.866Z,98657.09
2017-12-30T09:41:51.310Z,98668.16
2017-12-30T09:42:53.773Z,98655.42
2017-12-30T09:43:56.221Z,98653.68
2017-12-30T09:44:58.678Z,98659.63
2017-12-30T09:46:01.220Z,98648.41
2017-12-30T09:47:03.791Z,98646.41
2017-12-30T09:48:06.281Z,98647.69
2017-12-30T09:49:08.748Z,98651.52
2017-12-30T09:50:11.193Z,98656.62
2017-12-30T09:51:13.652Z,98657.41
2017-12-30T09:52:16.131Z,98660.52
2017-12-30T09:53:18.612Z,98657.42
2017-12-30T09:54:21.054Z,98665.52
2017-12-30T09:55:23.512Z,98656.92
2017-12-30T09:56:25.958Z,98657.28
2017-12-30T09:57:28.416Z,98655.61
2017-12-30T09:58:30.861Z,98661.54
2017-12-30T09:59:33.321Z,98657.89
2017-12-30T10:00:35.781Z,98658.80
2017-12-30T10:01:38.244Z,98653.94
2017-12-30T10:02:40.714Z,98648.40
2017-12-30T10:03:43.154Z,98651.83
2017-12-30T10:04:45.736Z,98640.48
2017-12-30T10:05:48.196Z,98642.23
2017-12-30T10:06:50.717Z,98633.08
2017-12-30T10:07:53.168Z,98636.57
2017-12-30T10:08:55.699Z,98646.30
2017-12-30T10:09:58.165Z,98648.88
2017-12-30T10:11:00.633Z,98638.54
2017-12-30T10:12:03.092Z,98627.09
2017-12-30T10:13:05.534Z,98635.59
2017-12-30T10:14:07.981Z,98630.48
2017-12-30T10:15:10.455Z,98634.88
2017-12-30T10:16:13.240Z,98631.16
2017-12-30T10:17:15.686Z,98635.53
2017-12-30T10:18:18.148Z,98630.95
2017-12-30T10:19:20.716Z,98631.14
2017-12-30T10:20:23.166Z,98619.30
2017-12-30T10:21:25.605Z,98616.59
2017-12-30T10:22:28.050Z,98612.13
2017-12-30T10:23:30.513Z,98619.28
2017-12-30T10:24:32.977Z,98625.61
2017-12-30T10:25:36.566Z,98616.15
2017-12-30T10:26:39.010Z,98620.41
2017-12-30T10:27:41.471Z,98607.05
2017-12-30T10:28:43.932Z,98611.42
2017-12-30T10:29:46.385Z,98609.02
2017-12-30T10:30:48.877Z,98613.23
2017-12-30T10:31:51.343Z,98608.33
2017-12-30T10:32:53.797Z,98605.50
2017-12-30T10:33:56.266Z,98605.67
2017-12-30T10:34:58.728Z,98612.10
2017-12-30T10:36:01.194Z,98611.13
2017-12-30T10:37:03.656Z,98613.83
2017-12-30T10:38:06.111Z,98617.11
2017-12-30T10:39:08.570Z,98607.94
2017-12-30T10:40:11.018Z,98605.79
2017-12-30T10:41:13.484Z,98606.20
2017-12-30T10:42:15.929Z,98608.47
2017-12-30T10:43:18.387Z,98606.73
2017-12-30T10:44:20.826Z,98599.11
2017-12-30T10:45:23.284Z,98593.84
2017-12-30T10:46:25.746Z,98597.00
2017-12-30T10:47:28.198Z,98602.09
2017-12-30T10:48:30.650Z,98600.41
2017-12-30T10:49:33.099Z,98605.35
2017-12-30T10:50:35.572Z,98615.62
2017-12-30T10:51:38.023Z,98613.89
2017-12-30T10:52:40.502Z,98602.88
2017-12-30T10:53:42.992Z,98607.02
2017-12-30T10:54:45.463Z,98601.55
2017-12-30T10:55:47.928Z,98611.61
2017-12-30T10:56:50.384Z,98606.65
2017-12-30T10:57:52.825Z,98606.34
2017-12-30T10:58:55.285Z,98621.29
2017-12-30T10:59:57.734Z,98616.66
2017-12-30T11:01:00.195Z,98617.97
2017-12-30T11:02:02.660Z,98619.80
2017-12-30T11:03:05.128Z,98624.85
2017-12-30T11:04:07.592Z,98623.69
2017-12-30T11:05:10.056Z,98624.23
2017-12-30T11:06:12.543Z,98631.01
2017-12-30T11:07:15.093Z,98634.64
2017-12-30T11:08:17.552Z,98637.63
2017-12-30T11:09:20.004Z,98641.61
2017-12-30T11:10:22.509Z,98639.24
2017-12-30T11:11:24.974Z,98646.05
2017-12-30T11:12:27.436Z,98644.59
2017-12-30T11:13:29.896Z,98656.17
2017-12-30T11:14:32.337Z,98658.92
2017-12-30T11:15:34.786Z,98656.02
2017-12-30T11:16:37.229Z,98648.73
2017-12-30T11:17:39.692Z,98648.73
2017-12-30T11:18:42.143Z,98648.36
2017-12-30T11:19:44.594Z,98655.44
2017-12-30T11:20:47.039Z,98649.36
2017-12-30T11:21:49.503Z,98652.83
2017-12-30T11:22:51.979Z,98651.33
2017-12-30T11:23:54.425Z,98655.08
2017-12-30T11:24:56.865Z,98650.39
2017-12-30T11:26:01.093Z,98650.06
2017-12-30T11:27:03.767Z,98643.50
2017-12-30T11:28:06.222Z,98636.56
2017-12-30T11:29:08.863Z,98650.80
2017-12-30T11:30:11.321Z,98644.99
2017-12-30T11:31:13.777Z,98652.16
2017-12-30T11:32:16.236Z,98654.00
2017-12-30T11:33:18.687Z,98666.45
2017-12-30T11:34:21.144Z,98670.30
2017-12-30T11:35:23.599Z,98664.20
2017-12-30T11:36:26.058Z,98673.46
2017-12-30T11:37:28.502Z,98660.80
2017-12-30T11:38:30.982Z,98660.42
2017-12-30T11:39:33.444Z,98669.59
2017-12-30T11:40:35.903Z,98664.15
2017-12-30T11:41:38.360Z,98670.15
2017-12-30T11:42:40.823Z,98661.04
2017-12-30T11:43:43.279Z,98658.66
2017-12-30T11:44:45.729Z,98660.53
2017-12-30T11:45:48.173Z,98661.58
2017-12-30T11:46:50.652Z,98662.59
2017-12-30T11:47:53.109Z,98664.45
2017-12-30T11:48:55.578Z,98660.47
2017-12-30T11:49:58.076Z,98658.17
2017-12-30T11:51:00.542Z,98658.52
2017-12-30T11:52:03.012Z,98676.05
2017-12-30T11:53:05.465Z,98673.36
2017-12-30T11:54:08.015Z,98671.33
2017-12-30T11:55:10.435Z,98671.89
2017-12-30T11:56:12.889Z,98672.23
2017-12-30T11:57:15.337Z,98674.11
2017-12-30T11:58:17.808Z,98666.22
2017-12-30T11:59:20.263Z,98665.14
2017-12-30T12:00:22.717Z,98666.55
2017-12-30T12:01:25.181Z,98674.74
2017-12-30T12:02:27.629Z,98666.97
2017-12-30T12:03:30.081Z,98675.30
2017-12-30T12:04:32.534Z,98677.62
2017-12-30T12:05:35.004Z,98679.30
2017-12-30T12:06:37.467Z,98673.45
2017-12-30T12:07:39.936Z,98667.25
2017-12-30T12:08:42.408Z,98673.77
2017-12-30T12:09:44.865Z,98675.09
2017-12-30T12:10:47.327Z,98666.13
2017-12-30T12:11:49.800Z,98666.74
2017-12-30T12:12:52.272Z,98672.73
2017-12-30T12:13:54.745Z,98671.48
2017-12-30T12:14:57.199Z,98667.80